Date,TemperatureHighF,TemperatureAvgF,TemperatureLowF,DewpointHighF,DewpointAvgF,DewpointLowF,HumidityHigh,HumidityAvg,HumidityLow,PressureMaxIn,PressureMinIn,WindSpeedMaxMPH,WindSpeedAvgMPH,GustSpeedMaxMPH,PrecipitationSumIn
2012-1-1,31,19,6,-100,-100,-100,0,0,100,0.00,40.00,0,-999,0,0.00
2012-1-2,36,24,16,-100,-100,-100,0,0,100,0.00,40.00,0,-999,0,0.00
2012-1-3,35,26,20,-100,-100,-100,0,0,100,0.00,40.00,0,-999,0,0.00
2012-1-4,38,25,15,-100,-100,-100,0,0,100,0.00,40.00,0,-999,0,0.00
2012-1-5,40,28,22,-100,-100,-100,0,0,100,0.00,40.00,0,-999,0,0.00
2012-1-6,31,23,17,-100,-100,-100,0,0,100,0.00,40.00,0,-999,0,0.00
2012-1-7,26,21,16,-100,-100,-100,0,0,100,0.00,40.00,0,-999,0,0.02
2012-1-8,16,10,4,-100,-100,-100,0,0,100,0.00,40.00,0,-999,0,0.01
2012-1-9,34,22,11,-100,-100,-100,0,0,100,0.00,40.00,0,-999,0,0.00
2012-1-10,34,24,18,-100,-100,-100,0,0,100,0.00,40.00,0,-999,0,0.00
2012-1-11,20,9,-5,-100,-100,-100,0,0,100,0.00,40.00,0,-999,0,0.00
2012-1-12,16,6,-9,-100,-100,-100,0,0,100,0.00,40.00,0,-999,0,0.00
2012-1-13,21,11,-1,-100,-100,-100,0,0,100,0.00,40.00,0,-999,0,0.00
2012-1-14,31,21,10,-100,-100,-100,0,0,100,0.00,40.00,0,-999,0,0.00
2012-1-15,34,25,19,-100,-100,-100,0,0,100,0.00,40.00,0,-999,0,0.00
2012-1-16,24,18,4,-100,-100,-100,0,0,100,0.00,40.00,0,-999,0,0.01
2012-1-17,10,3,-7,-100,-100,-100,0,0,100,0.00,40.00,0,-999,0,0.01
2012-1-18,25,19,11,-100,-100,-100,0,0,100,0.00,40.00,0,-999,0,0.00
2012-1-19,34,29,23,-100,-100,-100,0,0,100,0.00,40.00,0,-999,0,0.01
2012-1-20,27,23,16,-100,-100,-100,0,0,100,0.00,40.00,0,-999,0,0.01
2012-1-21,35,26,17,-100,-100,-100,0,0,100,0.00,40.00,0,-999,0,0.02
2012-1-22,22,13,1,-100,-100,-100,0,0,100,0.00,40.00,0,-999,0,0.03
2012-1-23,26,16,5,-100,-100,-100,0,0,100,0.00,40.00,0,-999,0,0.00
2012-1-24,21,17,11,-100,-100,-100,0,0,100,0.00,40.00,0,-999,0,0.00
2012-1-25,29,17,5,-100,-100,-100,0,0,100,0.00,40.00,0,-999,0,0.00
2012-1-26,30,21,13,-100,-100,-100,0,0,100,0.00,40.00,0,-999,0,0.01
2012-1-27,19,12,-2,-100,-100,-100,0,0,100,0.00,40.00,0,-999,0,0.02
2012-1-28,17,5,-5,-100,-100,-100,0,0,100,0.00,40.00,0,-999,0,0.00
2012-1-29,29,18,7,-100,-100,-100,0,0,100,0.00,40.00,0,-999,0,0.00
2012-1-30,31,23,17,-100,-100,-100,0,0,100,0.00,40.00,0,-999,0,0.00
2012-1-31,28,18,7,-100,-100,-100,0,0,100,0.00,40.00,0,-999,0,0.00
2012-2-1,32,18,8,-100,-100,-100,0,0,100,0.00,40.00,0,-999,0,0.00
2012-2-2,26,18,13,-100,-100,-100,0,0,100,0.00,40.00,0,-999,0,0.00
2012-2-3,17,12,3,-100,-100,-100,0,0,100,0.00,40.00,0,-999,0,0.00
2012-2-4,22,9,1,-100,-100,-100,0,0,100,0.00,40.00,0,-999,0,0.00
2012-2-5,23,10,2,-100,-100,-100,0,0,100,0.00,40.00,0,-999,0,0.00
2012-2-6,21,11,5,-100,-100,-100,0,0,100,0.00,40.00,0,-999,0,0.01
2012-2-7,22,10,1,-100,-100,-100,0,0,100,0.00,40.00,0,-999,0,0.01
2012-2-8,27,18,8,-100,-100,-100,0,0,100,0.00,40.00,0,-999,0,0.01
2012-2-9,21,17,11,-100,-100,-100,0,0,100,0.00,40.00,0,-999,0,0.01
2012-2-10,25,16,8,-100,-100,-100,0,0,100,0.00,40.00,0,-999,0,0.00
2012-2-11,30,22,15,-100,-100,-100,0,0,100,0.00,40.00,0,-999,0,0.01
2012-2-12,31,22,17,-100,-100,-100,0,0,100,0.00,40.00,0,-999,0,0.01
2012-2-13,24,18,12,-100,-100,-100,0,0,100,0.00,40.00,0,-999,0,0.01
2012-2-14,25,16,9,-100,-100,-100,0,0,100,0.00,40.00,0,-999,0,0.00
2012-2-15,24,13,4,-100,-100,-100,0,0,100,0.00,40.00,0,-999,0,0.00
2012-2-16,24,14,6,-100,-100,-100,0,0,100,0.00,40.00,0,-999,0,0.00
2012-2-17,27,14,4,-100,-100,-100,0,0,100,0.00,40.00,0,-999,0,0.00
2012-2-18,27,13,2,-100,-100,-100,0,0,100,0.00,40.00,0,-999,0,0.02
2012-2-19,29,19,11,-100,-100,-100,0,0,100,0.00,40.00,0,-999,0,0.00
2012-2-20,14,6,1,-100,-100,-100,0,0,100,0.00,40.00,0,-999,0,0.00
2012-2-21,20,14,7,-100,-100,-100,0,0,100,0.00,40.00,0,-999,0,0.02
2012-2-22,30,24,17,-100,-100,-100,0,0,100,0.00,40.00,0,-999,0,0.01
2012-2-23,26,12,2,-100,-100,-100,0,0,100,0.00,40.00,0,-999,0,0.02
2012-2-24,26,7,-7,-100,-100,-100,0,0,100,0.00,40.00,0,-999,0,0.01
2012-2-25,29,21,13,-100,-100,-100,0,0,100,0.00,40.00,0,-999,0,0.01
2012-2-26,18,9,4,-100,-100,-100,0,0,100,0.00,40.00,0,-999,0,0.00
2012-2-27,33,22,7,-100,-100,-100,0,0,100,0.00,40.00,0,-999,0,0.01
2012-2-28,27,20,11,-100,-100,-100,0,0,100,0.00,40.00,0,-999,0,0.02
2012-2-29,25,16,5,-100,-100,-100,0,0,100,0.00,40.00,0,-999,0,0.01
2012-3-1,19,14,6,-100,-100,-100,0,0,100,0.00,40.00,0,-999,0,0.01
2012-3-2,9,2,-5,-100,-100,-100,0,0,100,0.00,40.00,0,-999,0,0.00
2012-3-3,19,5,-6,-100,-100,-100,0,0,100,0.00,40.00,0,-999,0,0.01
2012-3-4,30,20,14,-100,-100,-100,0,0,100,0.00,40.00,0,-999,0,0.01
2012-3-5,36,26,15,-100,-100,-100,0,0,100,0.00,40.00,0,-999,0,0.00
2012-3-6,42,31,22,-100,-100,-100,0,0,100,0.00,40.00,0,-999,0,0.00
2012-3-7,33,26,17,-100,-100,-100,0,0,100,0.00,40.00,0,-999,0,0.00
2012-3-8,36,20,9,-100,-100,-100,0,0,100,0.00,40.00,0,-999,0,0.00
2012-3-9,41,26,14,-100,-100,-100,0,0,100,0.00,40.00,0,-999,0,0.00
2012-3-10,42,28,18,-100,-100,-100,0,0,100,0.00,40.00,0,-999,0,0.00
2012-3-11,37,28,20,-100,-100,-100,0,0,100,0.00,40.00,0,-999,0,0.00
2012-3-12,42,30,21,-100,-100,-100,0,0,100,0.00,40.00,0,-999,0,0.00
2012-3-13,44,33,24,-100,-100,-100,0,0,100,0.00,40.00,0,-999,0,0.00
2012-3-14,44,33,22,-100,-100,-100,0,0,100,0.00,40.00,0,-999,0,0.00
2012-3-15,47,34,24,-100,-100,-100,0,0,100,0.00,40.00,0,-999,0,0.00
2012-3-16,47,36,27,-100,-100,-100,0,0,100,0.00,40.00,0,-999,0,0.00
2012-3-17,47,35,27,-100,-100,-100,0,0,100,0.00,40.00,0,-999,0,0.00
2012-3-18,42,30,15,-100,-100,-100,0,0,100,0.00,40.00,0,-999,0,0.00
2012-3-19,20,12,4,-100,-100,-100,0,0,100,0.00,40.00,0,-999,0,0.00
2012-3-20,24,15,2,-100,-100,-100,0,0,100,0.00,40.00,0,-999,0,0.00
2012-3-21,37,23,13,-100,-100,-100,0,0,100,0.00,40.00,0,-999,0,0.00
2012-3-22,45,30,19,-100,-100,-100,0,0,100,0.00,40.00,0,-999,0,0.00
2012-3-23,53,38,25,-100,-100,-100,0,0,100,0.00,40.00,0,-999,0,0.00
2012-3-24,53,39,29,-100,-100,-100,0,0,100,0.00,40.00,0,-999,0,0.00
2012-3-25,51,41,32,-100,-100,-100,0,0,100,0.00,40.00,0,-999,0,0.00
2012-3-26,46,39,28,-100,-100,-100,0,0,100,0.00,40.00,0,-999,0,0.00
2012-3-27,45,36,27,-100,-100,-100,0,0,100,0.00,40.00,0,-999,0,0.00
2012-3-28,48,36,27,-100,-100,-100,0,0,100,0.00,40.00,0,-999,0,0.00
2012-3-29,45,36,28,-100,-100,-100,0,0,100,0.00,40.00,0,-999,0,0.00
2012-3-30,46,37,29,-100,-100,-100,0,0,100,0.00,40.00,0,-999,0,0.00
2012-3-31,53,40,32,-100,-100,-100,0,0,100,0.00,40.00,0,-999,0,0.01
2012-4-1,54,40,31,-100,-100,-100,0,0,100,0.00,40.00,0,-999,0,0.00
2012-4-2,38,30,23,-100,-100,-100,0,0,100,0.00,40.00,0,-999,0,0.00
2012-4-3,36,27,22,-100,-100,-100,0,0,100,0.00,40.00,0,-999,0,0.00
2012-4-4,47,35,23,-100,-100,-100,0,0,100,0.00,40.00,0,-999,0,0.03
2012-4-5,48,36,27,-100,-100,-100,0,0,100,0.00,40.00,0,-999,0,0.00
2012-4-6,45,38,33,-100,-100,-100,0,0,100,0.00,40.00,0,-999,0,0.00
2012-4-7,43,29,17,-100,-100,-100,0,0,100,0.00,40.00,0,-999,0,0.00
2012-4-8,48,35,24,-100,-100,-100,0,0,100,0.00,40.00,0,-999,0,0.00
2012-4-9,48,36,28,-100,-100,-100,0,0,100,0.00,40.00,0,-999,0,0.00
2012-4-10,53,41,30,-100,-100,-100,0,0,100,0.00,40.00,0,-999,0,0.00
2012-4-11,53,42,33,-100,-100,-100,0,0,100,0.00,40.00,0,-999,0,0.02
2012-4-12,36,31,24,-100,-100,-100,0,0,100,0.00,40.00,0,-999,0,0.00
2012-4-13,37,28,21,-100,-100,-100,0,0,100,0.00,40.00,0,-999,0,0.00
2012-4-14,36,27,22,-100,-100,-100,0,0,100,0.00,40.00,0,-999,0,0.00
2012-4-15,29,23,19,-100,-100,-100,0,0,100,0.00,40.00,0,-999,0,0.03
2012-4-16,30,23,18,-100,-100,-100,0,0,100,0.00,40.00,0,-999,0,0.01
2012-4-17,41,27,17,-100,-100,-100,0,0,100,0.00,40.00,0,-999,0,0.00
2012-4-18,47,34,25,-100,-100,-100,0,0,100,0.00,40.00,0,-999,0,0.00
2012-4-19,37,31,27,-100,-100,-100,0,0,100,0.00,40.00,0,-999,0,0.01
2012-4-20,42,32,25,-100,-100,-100,0,0,100,0.00,40.00,0,-999,0,0.01
2012-4-21,50,38,30,-100,-100,-100,0,0,100,0.00,40.00,0,-999,0,0.01
2012-4-22,54,41,33,-100,-100,-100,0,0,100,0.00,40.00,0,-999,0,0.00
2012-4-23,57,44,33,-100,-100,-100,0,0,100,0.00,40.00,0,-999,0,0.00
2012-4-24,55,45,37,-100,-100,-100,0,0,100,0.00,40.00,0,-999,0,0.00
2012-4-25,52,45,40,-100,-100,-100,0,0,100,0.00,40.00,0,-999,0,0.02
2012-4-26,51,43,35,-100,-100,-100,0,0,100,0.00,40.00,0,-999,0,0.00
2012-4-27,38,34,29,-100,-100,-100,0,0,100,0.00,40.00,0,-999,0,0.03
2012-4-28,39,28,21,-100,-100,-100,0,0,100,0.00,40.00,0,-999,0,0.01
2012-4-29,45,33,21,-100,-100,-100,0,0,100,0.00,40.00,0,-999,0,0.00
2012-4-30,49,37,26,-100,-100,-100,0,0,100,0.00,40.00,0,-999,0,0.00
2012-5-1,48,40,33,-100,-100,-100,0,0,100,0.00,40.00,0,-999,0,0.00
2012-5-2,51,42,33,-100,-100,-100,0,0,100,0.00,40.00,0,-999,0,0.00
2012-5-3,55,44,33,-100,-100,-100,0,0,100,0.00,40.00,0,-999,0,0.00
2012-5-4,57,47,37,-100,-100,-100,0,0,100,0.00,40.00,0,-999,0,0.00
2012-5-5,56,44,35,-100,-100,-100,0,0,100,0.00,40.00,0,-999,0,0.00
2012-5-6,46,36,30,-100,-100,-100,0,0,100,0.00,40.00,0,-999,0,0.00
2012-5-7,38,32,27,-100,-100,-100,0,0,100,0.00,40.00,0,-999,0,0.01
2012-5-8,48,34,22,-100,-100,-100,0,0,100,0.00,40.00,0,-999,0,0.00
2012-5-9,53,40,28,-100,-100,-100,0,0,100,0.00,40.00,0,-999,0,0.00
2012-5-10,52,43,33,-100,-100,-100,0,0,100,0.00,40.00,0,-999,0,0.00
2012-5-11,45,38,32,-100,-100,-100,0,0,100,0.00,40.00,0,-999,0,0.01
2012-5-12,47,36,27,-100,-100,-100,0,0,100,0.00,40.00,0,-999,0,0.01
2012-5-13,45,36,31,-100,-100,-100,0,0,100,0.00,40.00,0,-999,0,0.00
2012-5-14,54,40,26,-100,-100,-100,0,0,100,0.00,40.00,0,-999,0,0.00
2012-5-15,58,45,33,-100,-100,-100,0,0,100,0.00,40.00,0,-999,0,0.00
2012-5-16,51,41,35,-100,-100,-100,0,0,100,0.00,40.00,0,-999,0,0.00
2012-5-17,52,41,31,-100,-100,-100,0,0,100,0.00,40.00,0,-999,0,0.01
2012-5-18,54,45,36,-100,-100,-100,0,0,100,0.00,40.00,0,-999,0,0.00
2012-5-19,41,35,32,-100,-100,-100,0,0,100,0.00,40.00,0,-999,0,0.00
2012-5-20,52,40,30,-100,-100,-100,0,0,100,0.00,40.00,0,-999,0,0.00
2012-5-21,56,46,35,-100,-100,-100,0,0,100,0.00,40.00,0,-999,0,0.00
2012-5-22,61,50,41,-100,-100,-100,0,0,100,0.00,40.00,0,-999,0,0.00
2012-5-23,51,44,31,-100,-100,-100,0,0,100,0.00,40.00,0,-999,0,0.01
2012-5-24,43,34,25,-100,-100,-100,0,0,100,0.00,40.00,0,-999,0,0.01
2012-5-25,59,48,37,-100,-100,-100,0,0,100,0.00,40.00,0,-999,0,0.00
2012-5-26,60,50,42,-100,-100,-100,0,0,100,0.00,40.00,0,-999,0,0.00
2012-5-27,41,34,28,-100,-100,-100,0,0,100,0.00,40.00,0,-999,0,0.00
2012-5-28,50,38,26,-100,-100,-100,0,0,100,0.00,40.00,0,-999,0,0.00
2012-5-29,55,43,32,-100,-100,-100,0,0,100,0.00,40.00,0,-999,0,0.00
2012-5-30,55,45,36,-100,-100,-100,0,0,100,0.00,40.00,0,-999,0,0.00
2012-5-31,57,45,34,-100,-100,-100,0,0,100,0.00,40.00,0,-999,0,0.00
2012-6-1,58,48,38,-100,-100,-100,0,0,100,0.00,40.00,0,-999,0,0.00
2012-6-2,57,45,40,-100,-100,-100,0,0,100,0.00,40.00,0,-999,0,0.01
2012-6-3,61,50,38,-100,-100,-100,0,0,100,0.00,40.00,0,-999,0,0.00
2012-6-4,63,51,41,-100,-100,-100,0,0,100,0.00,40.00,0,-999,0,0.00
2012-6-5,58,49,40,-100,-100,-100,0,0,100,0.00,40.00,0,-999,0,0.00
2012-6-6,64,51,40,-100,-100,-100,0,0,100,0.00,40.00,0,-999,0,0.00
2012-6-7,63,52,40,-100,-100,-100,0,0,100,0.00,40.00,0,-999,0,0.00
2012-6-8,65,53,40,-100,-100,-100,0,0,100,0.00,40.00,0,-999,0,0.00
2012-6-9,64,53,44,-100,-100,-100,0,0,100,0.00,40.00,0,-999,0,0.00
2012-6-10,53,45,33,-100,-100,-100,0,0,100,0.00,40.00,0,-999,0,0.00
2012-6-11,58,44,30,-100,-100,-100,0,0,100,0.00,40.00,0,-999,0,0.00
2012-6-12,61,48,37,-100,-100,-100,0,0,100,0.00,40.00,0,-999,0,0.00
2012-6-13,65,53,39,-100,-100,-100,0,0,100,0.00,40.00,0,-999,0,0.00
2012-6-14,65,53,40,-100,-100,-100,0,0,100,0.00,40.00,0,-999,0,0.00
2012-6-15,63,53,44,-100,-100,-100,0,0,100,0.00,40.00,0,-999,0,0.00
2012-6-16,62,51,41,-100,-100,-100,0,0,100,0.00,40.00,0,-999,0,0.00
2012-6-17,48,44,43,-100,-100,-100,0,0,100,0.00,40.00,0,-999,0,0.00
2012-6-18,69,58,47,-100,-100,-100,0,0,100,0.00,40.00,0,-999,0,0.00
2012-6-19,69,57,45,-100,-100,-100,0,0,100,0.00,40.00,0,-999,0,0.00
2012-6-20,62,56,48,-100,-100,-100,0,0,100,0.00,40.00,0,-999,0,0.00
2012-6-21,68,54,39,-100,-100,-100,0,0,100,0.00,40.00,0,-999,0,0.00
2012-6-22,70,59,47,-100,-100,-100,0,0,100,0.00,40.00,0,-999,0,0.00
2012-6-23,73,61,50,-100,-100,-100,0,0,100,0.00,40.00,0,-999,0,0.00
2012-6-24,67,58,50,-100,-100,-100,0,0,100,0.00,40.00,0,-999,0,0.01
2012-6-25,72,61,50,-100,-100,-100,0,0,100,0.00,40.00,0,-999,0,0.00
2012-6-26,65,56,48,-100,-100,-100,0,0,100,0.00,40.00,0,-999,0,0.00
2012-6-27,59,54,49,-100,-100,-100,0,0,100,0.00,40.00,0,-999,0,0.00
2012-6-28,63,52,45,-100,-100,-100,0,0,100,0.00,40.00,0,-999,0,0.00
2012-6-29,65,55,45,-100,-100,-100,0,0,100,0.00,40.00,0,-999,0,0.00
2012-6-30,66,58,47,-100,-100,-100,0,0,100,0.00,40.00,0,-999,0,0.00
2012-7-1,68,60,50,-100,-100,-100,0,0,100,0.00,40.00,0,-999,0,0.00
2012-7-2,69,56,48,-100,-100,-100,0,0,100,0.00,40.00,0,-999,0,0.00
2012-7-3,64,53,46,-100,-100,-100,0,0,100,0.00,40.00,0,-999,0,0.00
2012-7-4,64,52,46,-100,-100,-100,0,0,100,0.00,40.00,0,-999,0,0.00
2012-7-5,69,56,47,-100,-100,-100,0,0,100,0.00,40.00,0,-999,0,0.00
2012-7-6,64,51,44,-100,-100,-100,0,0,100,0.00,40.00,0,-999,0,0.00
2012-7-7,55,49,45,-100,-100,-100,0,0,100,0.00,40.00,0,-999,0,0.00
2012-7-8,61,51,43,-100,-100,-100,0,0,100,0.00,40.00,0,-999,0,0.00
2012-7-9,62,52,44,-100,-100,-100,0,0,100,0.00,40.00,0,-999,0,0.00
2012-7-10,65,53,42,-100,-100,-100,0,0,100,0.00,40.00,0,-999,0,0.00
2012-7-11,67,55,43,-100,-100,-100,0,0,100,0.00,40.00,0,-999,0,0.00
2012-7-12,65,53,45,-100,-100,-100,0,0,100,0.00,40.00,0,-999,0,0.00
2012-7-13,68,55,45,-100,-100,-100,0,0,100,0.00,40.00,0,-999,0,0.00
2012-7-14,62,54,47,-100,-100,-100,0,0,100,0.00,40.00,0,-999,0,0.00
2012-7-15,61,52,45,-100,-100,-100,0,0,100,0.00,40.00,0,-999,0,0.00
2012-7-16,63,50,43,-100,-100,-100,0,0,100,0.00,40.00,0,-999,0,0.00
2012-7-17,61,54,47,-100,-100,-100,0,0,100,0.00,40.00,0,-999,0,0.01
2012-7-18,67,52,43,-100,-100,-100,0,0,100,0.00,40.00,0,-999,0,0.11
2012-7-19,69,55,46,-100,-100,-100,0,0,100,0.00,40.00,0,-999,0,0.11
2012-7-20,73,58,47,-100,-100,-100,0,0,100,0.00,40.00,0,-999,0,0.00
2012-7-21,67,54,45,-100,-100,-100,0,0,100,0.00,40.00,0,-999,0,0.01
2012-7-22,67,51,43,-100,-100,-100,0,0,100,0.00,40.00,0,-999,0,0.01
2012-7-23,64,53,45,-100,-100,-100,0,0,100,0.00,40.00,0,-999,0,0.00
2012-7-24,66,52,44,-100,-100,-100,0,0,100,0.00,40.00,0,-999,0,0.00
2012-7-25,59,50,42,-100,-100,-100,0,0,100,0.00,40.00,0,-999,0,0.01
2012-7-26,64,54,44,-100,-100,-100,0,0,100,0.00,40.00,0,-999,0,0.00
2012-7-27,67,53,46,-100,-100,-100,0,0,100,0.00,40.00,0,-999,0,0.03
2012-7-28,60,50,43,-100,-100,-100,0,0,100,0.00,40.00,0,-999,0,0.02
2012-7-29,64,53,47,-100,-100,-100,0,0,100,0.00,40.00,0,-999,0,0.00
2012-7-30,61,53,47,-100,-100,-100,0,0,100,0.00,40.00,0,-999,0,0.72
2012-7-31,65,53,45,-100,-100,-100,0,0,100,0.00,40.00,0,-999,0,0.01
2012-8-1,62,52,43,-100,-100,-100,0,0,100,0.00,40.00,0,-999,0,0.01
2012-8-2,59,49,43,-100,-100,-100,0,0,100,0.00,40.00,0,-999,0,0.02
2012-8-3,64,53,43,-100,-100,-100,0,0,100,0.00,40.00,0,-999,0,0.00
2012-8-4,63,53,43,-100,-100,-100,0,0,100,0.00,40.00,0,-999,0,0.00
2012-8-5,66,52,41,-100,-100,-100,0,0,100,0.00,40.00,0,-999,0,0.00
2012-8-6,62,51,45,-100,-100,-100,0,0,100,0.00,40.00,0,-999,0,0.01
2012-8-7,64,52,43,-100,-100,-100,0,0,100,0.00,40.00,0,-999,0,0.01
2012-8-8,67,53,44,-100,-100,-100,0,0,100,0.00,40.00,0,-999,0,0.00
2012-8-9,65,61,51,-100,-100,-100,0,0,100,0.00,40.00,0,-999,0,0.00
2012-8-10,65,53,46,-100,-100,-100,0,0,100,0.00,40.00,0,-999,0,0.00
2012-8-11,58,48,43,-100,-100,-100,0,0,100,0.00,40.00,0,-999,0,0.01
2012-8-12,64,52,42,-100,-100,-100,0,0,100,0.00,40.00,0,-999,0,0.00
2012-8-13,50,45,41,-100,-100,-100,0,0,100,0.00,40.00,0,-999,0,0.02
2012-8-14,61,47,39,-100,-100,-100,0,0,100,0.00,40.00,0,-999,0,0.01
2012-8-15,61,50,42,-100,-100,-100,0,0,100,0.00,40.00,0,-999,0,0.00
2012-8-16,64,53,43,-100,-100,-100,0,0,100,0.00,40.00,0,-999,0,0.00
2012-8-17,62,52,44,-100,-100,-100,0,0,100,0.00,40.00,0,-999,0,0.00
2012-8-18,63,51,42,-100,-100,-100,0,0,100,0.00,40.00,0,-999,0,0.00
2012-8-19,63,52,40,-100,-100,-100,0,0,100,0.00,40.00,0,-999,0,0.00
2012-8-20,54,47,43,-100,-100,-100,0,0,100,0.00,40.00,0,-999,0,0.01
2012-8-21,64,51,40,-100,-100,-100,0,0,100,0.00,40.00,0,-999,0,0.00
2012-8-22,57,51,47,-100,-100,-100,0,0,100,0.00,40.00,0,-999,0,0.00
2012-8-23,55,48,45,-100,-100,-100,0,0,100,0.00,40.00,0,-999,0,0.02
2012-8-24,55,47,42,-100,-100,-100,0,0,100,0.00,40.00,0,-999,0,0.01
2012-8-25,61,50,39,-100,-100,-100,0,0,100,0.00,40.00,0,-999,0,0.00
2012-8-26,66,53,41,-100,-100,-100,0,0,100,0.00,40.00,0,-999,0,0.00
2012-8-27,64,54,46,-100,-100,-100,0,0,100,0.00,40.00,0,-999,0,0.00
2012-8-28,62,53,45,-100,-100,-100,0,0,100,0.00,40.00,0,-999,0,0.00
2012-8-29,62,53,46,-100,-100,-100,0,0,100,0.00,40.00,0,-999,0,0.00
2012-8-30,63,50,43,-100,-100,-100,0,0,100,0.00,40.00,0,-999,0,0.00
2012-8-31,65,52,43,-100,-100,-100,0,0,100,0.00,40.00,0,-999,0,0.00
2012-9-1,59,50,44,-100,-100,-100,0,0,100,0.00,40.00,0,-999,0,0.00
2012-9-2,61,50,41,-100,-100,-100,0,0,100,0.00,40.00,0,-999,0,0.00
2012-9-3,60,48,42,-100,-100,-100,0,0,100,0.00,40.00,0,-999,0,0.00
2012-9-4,61,48,41,-100,-100,-100,0,0,100,0.00,40.00,0,-999,0,0.00
2012-9-5,62,48,38,-100,-100,-100,0,0,100,0.00,40.00,0,-999,0,0.00
2012-9-6,60,50,39,-100,-100,-100,0,0,100,0.00,40.00,0,-999,0,0.00
2012-9-7,53,46,40,-100,-100,-100,0,0,100,0.00,40.00,0,-999,0,0.01
2012-9-8,60,47,34,-100,-100,-100,0,0,100,0.00,40.00,0,-999,0,0.00
2012-9-9,64,50,38,-100,-100,-100,0,0,100,0.00,40.00,0,-999,0,0.00
2012-9-10,61,50,40,-100,-100,-100,0,0,100,0.00,40.00,0,-999,0,0.00
2012-9-11,57,49,41,-100,-100,-100,0,0,100,0.00,40.00,0,-999,0,0.01
2012-9-12,44,41,36,-100,-100,-100,0,0,100,0.00,40.00,0,-999,0,0.02
2012-9-13,54,42,32,-100,-100,-100,0,0,100,0.00,40.00,0,-999,0,0.01
2012-9-14,58,45,33,-100,-100,-100,0,0,100,0.00,40.00,0,-999,0,0.00
2012-9-15,59,46,36,-100,-100,-100,0,0,100,0.00,40.00,0,-999,0,0.00
2012-9-16,57,46,36,-100,-100,-100,0,0,100,0.00,40.00,0,-999,0,0.00
2012-9-17,45,40,35,-100,-100,-100,0,0,100,0.00,40.00,0,-999,0,0.01
2012-9-18,56,43,32,-100,-100,-100,0,0,100,0.00,40.00,0,-999,0,0.01
2012-9-19,58,44,35,-100,-100,-100,0,0,100,0.00,40.00,0,-999,0,0.00
2012-9-20,57,45,36,-100,-100,-100,0,0,100,0.00,40.00,0,-999,0,0.00
2012-9-21,58,45,37,-100,-100,-100,0,0,100,0.00,40.00,0,-999,0,0.00
2012-9-22,58,46,38,-100,-100,-100,0,0,100,0.00,40.00,0,-999,0,0.00
2012-9-23,55,48,40,-100,-100,-100,0,0,100,0.00,40.00,0,-999,0,0.00
2012-9-24,46,41,36,-100,-100,-100,0,0,100,0.00,40.00,0,-999,0,0.01
2012-9-25,45,37,33,-100,-100,-100,0,0,100,0.00,40.00,0,-999,0,0.01
2012-9-26,43,36,30,-100,-100,-100,0,0,100,0.00,40.00,0,-999,0,0.01
2012-9-27,44,37,33,-100,-100,-100,0,0,100,0.00,40.00,0,-999,0,0.00
2012-9-28,49,38,31,-100,-100,-100,0,0,100,0.00,40.00,0,-999,0,0.00
2012-9-29,53,40,33,-100,-100,-100,0,0,100,0.00,40.00,0,-999,0,0.00
2012-9-30,50,42,35,-100,-100,-100,0,0,100,0.00,40.00,0,-999,0,0.00
2012-10-1,51,42,34,-100,-100,-100,0,0,100,0.00,40.00,0,-999,0,0.00
2012-10-2,55,43,33,-100,-100,-100,0,0,100,0.00,40.00,0,-999,0,0.00
2012-10-3,52,43,35,-100,-100,-100,0,0,100,0.00,40.00,0,-999,0,0.00
2012-10-4,52,44,36,-100,-100,-100,0,0,100,0.00,40.00,0,-999,0,0.00
2012-10-5,43,37,33,-100,-100,-100,0,0,100,0.00,40.00,0,-999,0,0.01
2012-10-6,37,30,22,-100,-100,-100,0,0,100,0.00,40.00,0,-999,0,0.01
2012-10-7,39,27,18,-100,-100,-100,0,0,100,0.00,40.00,0,-999,0,0.00
2012-10-8,47,33,23,-100,-100,-100,0,0,100,0.00,40.00,0,-999,0,0.00
2012-10-9,47,38,30,-100,-100,-100,0,0,100,0.00,40.00,0,-999,0,0.00
2012-10-10,50,40,32,-100,-100,-100,0,0,100,0.00,40.00,0,-999,0,0.01
2012-10-11,53,43,34,-100,-100,-100,0,0,100,0.00,40.00,0,-999,0,0.00
2012-10-12,49,37,30,-100,-100,-100,0,0,100,0.00,40.00,0,-999,0,0.01
2012-10-13,33,30,26,-100,-100,-100,0,0,100,0.00,40.00,0,-999,0,0.02
2012-10-14,39,33,29,-100,-100,-100,0,0,100,0.00,40.00,0,-999,0,0.01
2012-10-15,48,36,27,-100,-100,-100,0,0,100,0.00,40.00,0,-999,0,0.00
2012-10-16,48,38,29,-100,-100,-100,0,0,100,0.00,40.00,0,-999,0,0.00
2012-10-17,34,28,20,-100,-100,-100,0,0,100,0.00,40.00,0,-999,0,0.01
2012-10-18,40,29,19,-100,-100,-100,0,0,100,0.00,40.00,0,-999,0,0.00
2012-10-19,48,35,25,-100,-100,-100,0,0,100,0.00,40.00,0,-999,0,0.00
2012-10-20,53,40,31,-100,-100,-100,0,0,100,0.00,40.00,0,-999,0,0.00
2012-10-21,51,39,32,-100,-100,-100,0,0,100,0.00,40.00,0,-999,0,0.00
2012-10-22,50,39,31,-100,-100,-100,0,0,100,0.00,40.00,0,-999,0,0.00
2012-10-23,48,41,35,-100,-100,-100,0,0,100,0.00,40.00,0,-999,0,0.00
2012-10-24,41,34,21,-100,-100,-100,0,0,100,0.00,40.00,0,-999,0,0.01
2012-10-25,21,18,14,-100,-100,-100,0,0,100,0.00,40.00,0,-999,0,0.02
2012-10-26,23,13,4,-100,-100,-100,0,0,100,0.00,40.00,0,-999,0,0.01
2012-10-27,27,20,15,-100,-100,-100,0,0,100,0.00,40.00,0,-999,0,0.01
2012-10-28,39,29,22,-100,-100,-100,0,0,100,0.00,40.00,0,-999,0,0.00
2012-10-29,43,32,25,-100,-100,-100,0,0,100,0.00,40.00,0,-999,0,0.00
2012-10-30,44,33,26,-100,-100,-100,0,0,100,0.00,40.00,0,-999,0,0.00
2012-10-31,46,33,27,-100,-100,-100,0,0,100,0.00,40.00,0,-999,0,0.00
2012-11-1,46,37,31,-100,-100,-100,0,0,100,0.00,40.00,0,-999,0,0.00
2012-11-2,41,33,28,-100,-100,-100,0,0,100,0.00,40.00,0,-999,0,0.00
2012-11-3,40,30,23,-100,-100,-100,0,0,100,0.00,40.00,0,-999,0,0.00
2012-11-4,40,31,24,-100,-100,-100,0,0,100,0.00,40.00,0,-999,0,0.00
2012-11-5,40,34,30,-100,-100,-100,0,0,100,0.00,40.00,0,-999,0,0.00
2012-11-6,45,33,26,-100,-100,-100,0,0,100,0.00,40.00,0,-999,0,0.00
2012-11-7,47,37,29,-100,-100,-100,0,0,100,0.00,40.00,0,-999,0,0.00
2012-11-8,47,35,29,-100,-100,-100,0,0,100,0.00,40.00,0,-999,0,0.00
2012-11-9,41,34,31,-100,-100,-100,0,0,100,0.00,40.00,0,-999,0,0.00
2012-11-10,30,21,5,-100,-100,-100,0,0,100,0.00,40.00,0,-999,0,0.01
2012-11-11,7,5,3,-100,-100,-100,0,0,100,0.00,40.00,0,-999,0,0.01
2012-11-12,25,13,-3,-100,-100,-100,0,0,100,0.00,40.00,0,-999,0,0.00
2012-11-13,28,20,15,-100,-100,-100,0,0,100,0.00,40.00,0,-999,0,0.00
2012-11-14,35,25,17,-100,-100,-100,0,0,100,0.00,40.00,0,-999,0,0.00
2012-11-15,34,24,17,-100,-100,-100,0,0,100,0.00,40.00,0,-999,0,0.00
2012-11-16,42,28,19,-100,-100,-100,0,0,100,0.00,40.00,0,-999,0,0.00
2012-11-17,41,31,24,-100,-100,-100,0,0,100,0.00,40.00,0,-999,0,0.00
2012-11-18,34,27,22,-100,-100,-100,0,0,100,0.00,40.00,0,-999,0,0.00
2012-11-19,36,26,19,-100,-100,-100,0,0,100,0.00,40.00,0,-999,0,0.00
2012-11-20,42,30,21,-100,-100,-100,0,0,100,0.00,40.00,0,-999,0,0.00
2012-11-21,45,34,28,-100,-100,-100,0,0,100,0.00,40.00,0,-999,0,0.00
2012-11-22,37,29,22,-100,-100,-100,0,0,100,0.00,40.00,0,-999,0,0.00
2012-11-23,37,25,18,-100,-100,-100,0,0,100,0.00,40.00,0,-999,0,0.00
2012-11-24,41,30,23,-100,-100,-100,0,0,100,0.00,40.00,0,-999,0,0.00
2012-11-25,37,29,21,-100,-100,-100,0,0,100,0.00,40.00,0,-999,0,0.00
2012-11-26,25,19,14,-100,-100,-100,0,0,100,0.00,40.00,0,-999,0,0.00
2012-11-27,37,25,17,-100,-100,-100,0,0,100,0.00,40.00,0,-999,0,0.00
2012-11-28,38,28,22,-100,-100,-100,0,0,100,0.00,40.00,0,-999,0,0.00
2012-11-29,36,29,23,-100,-100,-100,0,0,100,0.00,40.00,0,-999,0,0.00
2012-11-30,42,31,23,-100,-100,-100,0,0,100,0.00,40.00,0,-999,0,0.00
2012-12-1,38,32,26,-100,-100,-100,0,0,100,0.00,40.00,0,-999,0,0.00
2012-12-2,43,33,26,-100,-100,-100,0,0,100,0.00,40.00,0,-999,0,0.00
2012-12-3,30,26,15,-100,-100,-100,0,0,100,0.00,40.00,0,-999,0,0.01
2012-12-4,36,23,12,-100,-100,-100,0,0,100,0.00,40.00,0,-999,0,0.00
2012-12-5,42,33,26,-100,-100,-100,0,0,100,0.00,40.00,0,-999,0,0.00
2012-12-6,33,26,17,-100,-100,-100,0,0,100,0.00,40.00,0,-999,0,0.00
2012-12-7,27,23,19,-100,-100,-100,0,0,100,0.00,40.00,0,-999,0,0.00
2012-12-8,24,21,18,-100,-100,-100,0,0,100,0.00,40.00,0,-999,0,0.00
2012-12-9,8,0,-11,-100,-100,-100,0,0,100,0.00,40.00,0,-999,0,0.02
2012-12-10,10,5,-12,-100,-100,-100,0,0,100,0.00,40.00,0,-999,0,0.01
2012-12-11,14,8,4,-100,-100,-100,0,0,100,0.00,40.00,0,-999,0,0.01
2012-12-12,29,20,8,-100,-100,-100,0,0,100,0.00,40.00,0,-999,0,0.00
2012-12-13,32,22,16,-100,-100,-100,0,0,100,0.00,40.00,0,-999,0,0.00
2012-12-14,30,24,17,-100,-100,-100,0,0,100,0.00,40.00,0,-999,0,0.00
2012-12-15,24,16,8,-100,-100,-100,0,0,100,0.00,40.00,0,-999,0,0.01
2012-12-16,16,12,9,-100,-100,-100,0,0,100,0.00,40.00,0,-999,0,0.02
2012-12-17,22,16,11,-100,-100,-100,0,0,100,0.00,40.00,0,-999,0,0.02
2012-12-18,24,19,16,-100,-100,-100,0,0,100,0.00,40.00,0,-999,0,0.01
2012-12-19,19,6,-13,-100,-100,-100,0,0,100,0.00,40.00,0,-999,0,0.01
2012-12-20,18,2,-15,-100,-100,-100,0,0,100,0.00,40.00,0,-999,0,0.00
2012-12-21,29,17,8,-100,-100,-100,0,0,100,0.00,40.00,0,-999,0,0.00
2012-12-22,31,21,15,-100,-100,-100,0,0,100,0.00,40.00,0,-999,0,0.00
2012-12-23,24,18,13,-100,-100,-100,0,0,100,0.00,40.00,0,-999,0,0.00
2012-12-24,26,18,12,-100,-100,-100,0,0,100,0.00,40.00,0,-999,0,0.02
2012-12-25,15,8,3,-100,-100,-100,0,0,100,0.00,40.00,0,-999,0,0.01
2012-12-26,26,16,5,-100,-100,-100,0,0,100,0.00,40.00,0,-999,0,0.01
2012-12-27,13,9,-1,-100,-100,-100,0,0,100,0.00,40.00,0,-999,0,0.01
2012-12-28,6,-1,-7,-100,-100,-100,0,0,100,0.00,40.00,0,-999,0,0.00
2012-12-29,29,11,-8,-100,-100,-100,0,0,100,0.00,40.00,0,-999,0,0.00
2012-12-30,24,18,8,-100,-100,-100,0,0,100,0.00,40.00,0,-999,0,0.00
2012-12-31,18,9,-2,-100,-100,-100,0,0,100,0.00,40.00,0,-999,0,0.00
2013-1-1,5,-1,-6,-100,-100,-100,0,0,100,0.00,40.00,0,-999,0,0.00